Aviation Digital Data Service (ADDS)

Output produced by METARs form (1205 UTC 22 March 2019)
found at http://www.aviationweather.gov/metar/data/
 
Forecast for: UTSK (KARSHI KHANABAD , UZ)
Text: TAF UTSK 220856Z 2210/2219 34008KT 9999 SCT050CB BKN100
Forecast period: 1000 to 1900 UTC 22 March 2019
Forecast type: FROM: standard forecast or significant change
Winds: from the NNW (340 degrees) at 9 MPH (8 knots; 4.1 m/s)
Visibility: 6 or more miles 10+ km)
Ceiling: 10000 feet AGL
Clouds: scattered clouds at 5000 feet AGL
broken clouds at 10000 feet AGL
Weather: no significant weather forecast for this period
Text: TEMPO 2210/2219 VRB18G28KT 3500 -TSRA BR BKN012 BKN033CB
Forecast period: 1000 to 1900 UTC 22 March 2019
Forecast type: TEMPORARY: The following changes expected for less than half the time period
Winds: variable direction winds at 21 MPH (18 knots; 9.3 m/s)
gusting to 32 MPH (28 knots; 14.4 m/s)
Visibility: 2.17 miles (3.49 km)
Ceiling: 1200 feet AGL
Clouds: broken clouds at 1200 feet AGL
broken clouds at 3300 feet AGL
Weather: -TSRA BR  (light rain associated with thunderstorm(s), mist)